Time;durP1;ratioP1;P1;durP2;ratioP2;P2;SDS_P1;SDS_P2;PMS_P1;PMS_P2;Temp;Humidity;BMP_temperature;BMP_pressure;BME280_temperature;BME280_humidity;BME280_pressure;Samples;Min_cycle;Max_cycle;Signal;HPM_P1;HPM_P2
2023/10/24 00:01:24;;;;;;;;;;;15.00;99.90;;;;;;5091132;28;19972;-78
2023/10/24 00:03:49;;;;;;;;;;;14.90;99.90;;;;;;5072764;28;19908;-79
2023/10/24 00:06:15;;;;;;;;;;;15.00;99.90;;;;;;5072515;28;20338;-78
2023/10/24 00:08:41;;;;;;;;;;;15.00;99.90;;;;;;5090876;28;19915;-78
2023/10/24 00:11:07;;;;;;;;;;;14.90;99.90;;;;;;5090522;28;19908;-78
2023/10/24 00:13:33;;;;;;;;;;;15.00;99.90;;;;;;5072623;28;19916;-78
2023/10/24 00:15:59;;;;;;;;;;;15.00;99.90;;;;;;5090714;28;19916;-77
2023/10/24 00:18:25;;;;;;;;;;;15.10;99.90;;;;;;5072379;28;20304;-78
2023/10/24 00:20:51;;;;;;;;;;;15.10;99.90;;;;;;5072095;28;20296;-77
2023/10/24 00:23:16;;;;;;;;;;;15.20;99.90;;;;;;5090813;28;20418;-79
2023/10/24 00:25:42;;;;;;;;;;;15.10;99.90;;;;;;5090463;28;19915;-77
2023/10/24 00:28:07;;;;;;;;;;;14.90;99.90;;;;;;5090551;28;19912;-77
2023/10/24 00:30:33;;;;;;;;;;;14.80;99.90;;;;;;5090359;28;20411;-77
2023/10/24 00:32:58;;;;;;;;;;;14.70;99.90;;;;;;5072232;28;19961;-77
2023/10/24 00:35:24;;;;;;;;;;;14.60;99.90;;;;;;5090402;28;20128;-77
2023/10/24 00:37:49;;;;;;;;;;;14.50;99.90;;;;;;5071978;28;19904;-77
2023/10/24 00:40:15;;;;;;;;;;;14.50;99.90;;;;;;5090130;28;19923;-77
2023/10/24 00:42:40;;;;;;;;;;;14.50;99.90;;;;;;5072275;28;20537;-76
2023/10/24 00:45:06;;;;;;;;;;;14.40;99.90;;;;;;5090182;28;20441;-78
2023/10/24 00:47:32;;;;;;;;;;;14.40;99.90;;;;;;5090269;28;19912;-76
2023/10/24 00:49:57;;;;;;;;;;;14.40;99.90;;;;;;5089995;28;19908;-76
2023/10/24 00:52:23;;;;;;;;;;;14.30;99.90;;;;;;5090325;28;19914;-77
2023/10/24 00:54:49;;;;;;;;;;;14.30;99.90;;;;;;5072113;28;19908;-77
2023/10/24 00:57:14;;;;;;;;;;;14.20;99.90;;;;;;5090356;28;19919;-77
2023/10/24 00:59:40;;;;;;;;;;;14.20;99.90;;;;;;5090096;28;19986;-76
2023/10/24 01:02:06;;;;;;;;;;;14.20;99.90;;;;;;5090222;28;19915;-76
2023/10/24 01:04:32;;;;;;;;;;;14.30;99.90;;;;;;5090198;28;19908;-78
2023/10/24 01:06:59;;;;;;;;;;;14.20;99.90;;;;;;5071844;28;20443;-78
2023/10/24 01:09:25;;;;;;;;;;;14.20;99.90;;;;;;5089941;28;20016;-77
2023/10/24 01:11:51;;;;;;;;;;;14.30;99.90;;;;;;5071876;28;19986;-78
2023/10/24 01:14:16;;;;;;;;;;;14.30;99.90;;;;;;5071773;28;19916;-78
2023/10/24 01:16:43;;;;;;;;;;;14.30;99.90;;;;;;5090255;28;19904;-78
2023/10/24 01:19:09;;;;;;;;;;;14.40;99.90;;;;;;5071718;28;20006;-77
2023/10/24 01:21:34;;;;;;;;;;;14.40;99.90;;;;;;5089464;28;19912;-75
2023/10/24 01:24:00;;;;;;;;;;;14.40;99.90;;;;;;5089910;28;19977;-76
2023/10/24 01:26:26;;;;;;;;;;;14.40;99.90;;;;;;5071834;28;19947;-78
2023/10/24 01:28:52;;;;;;;;;;;14.50;99.90;;;;;;5071628;28;19908;-78
2023/10/24 01:31:17;;;;;;;;;;;14.60;99.90;;;;;;5090289;28;20393;-75
2023/10/24 01:33:43;;;;;;;;;;;14.60;99.90;;;;;;5093945;28;20380;-77
2023/10/24 01:36:08;;;;;;;;;;;14.60;99.90;;;;;;5075594;28;20291;-77
2023/10/24 01:38:34;;;;;;;;;;;14.60;99.90;;;;;;5093709;28;19908;-77
2023/10/24 01:40:59;;;;;;;;;;;14.60;99.90;;;;;;5075328;28;19915;-76
2023/10/24 01:43:25;;;;;;;;;;;14.60;99.90;;;;;;5093643;28;19947;-77
2023/10/24 01:45:50;;;;;;;;;;;14.70;99.90;;;;;;5093577;28;19911;-78
2023/10/24 01:48:16;;;;;;;;;;;14.70;99.90;;;;;;5093569;28;19950;-76
2023/10/24 01:50:41;;;;;;;;;;;14.70;99.90;;;;;;5093723;28;19964;-77
2023/10/24 01:53:07;;;;;;;;;;;14.70;99.90;;;;;;5075032;28;19943;-76
2023/10/24 01:55:32;;;;;;;;;;;14.60;99.90;;;;;;5093387;28;20448;-77
2023/10/24 01:57:58;;;;;;;;;;;14.50;99.90;;;;;;5075188;28;20406;-78
2023/10/24 02:00:23;;;;;;;;;;;14.50;99.90;;;;;;5074764;28;19916;-77
2023/10/24 02:02:49;;;;;;;;;;;14.50;99.90;;;;;;5074907;28;19968;-77
2023/10/24 02:05:14;;;;;;;;;;;14.40;99.90;;;;;;5068473;28;19912;-78
2023/10/24 02:07:40;;;;;;;;;;;14.40;99.90;;;;;;5085951;28;20002;-79
2023/10/24 02:10:05;;;;;;;;;;;14.40;99.90;;;;;;5092750;28;20399;-79
2023/10/24 02:12:31;;;;;;;;;;;14.30;99.90;;;;;;5092431;28;20482;-77
2023/10/24 02:14:57;;;;;;;;;;;14.30;99.90;;;;;;5074193;28;19920;-76
2023/10/24 02:17:22;;;;;;;;;;;14.40;99.90;;;;;;5092346;28;19912;-77
2023/10/24 02:19:48;;;;;;;;;;;14.50;99.90;;;;;;5092683;28;20407;-78
2023/10/24 02:22:13;;;;;;;;;;;14.80;99.90;;;;;;5074742;28;19954;-78
2023/10/24 02:24:39;;;;;;;;;;;14.80;99.90;;;;;;5074507;28;19912;-77
2023/10/24 02:27:05;;;;;;;;;;;14.80;99.90;;;;;;5074672;28;20296;-77
2023/10/24 02:29:33;;;;;;;;;;;14.90;99.90;;;;;;5075900;28;19912;-76
2023/10/24 02:32:00;;;;;;;;;;;15.10;99.90;;;;;;5074601;28;19911;-77
2023/10/24 02:34:25;;;;;;;;;;;15.10;99.90;;;;;;5074258;28;20376;-77
2023/10/24 02:36:51;;;;;;;;;;;14.90;99.90;;;;;;5074410;28;19990;-77
2023/10/24 02:39:16;;;;;;;;;;;14.80;99.90;;;;;;5074597;28;19916;-78
2023/10/24 02:41:42;;;;;;;;;;;14.70;99.90;;;;;;5074286;28;19907;-77
2023/10/24 02:44:07;;;;;;;;;;;14.80;99.90;;;;;;5092569;28;20399;-78
2023/10/24 02:46:33;;;;;;;;;;;14.90;99.90;;;;;;5092519;28;20418;-76
2023/10/24 02:48:58;;;;;;;;;;;14.70;99.90;;;;;;5074290;28;19911;-77
2023/10/24 02:51:24;;;;;;;;;;;14.50;99.90;;;;;;5092363;28;19908;-77
2023/10/24 02:53:49;;;;;;;;;;;14.40;99.90;;;;;;5092291;28;19911;-78
2023/10/24 02:56:15;;;;;;;;;;;14.30;99.90;;;;;;5092356;28;19908;-76
2023/10/24 02:58:42;;;;;;;;;;;14.30;99.90;;;;;;5073945;28;19919;-78
2023/10/24 03:01:07;;;;;;;;;;;14.30;99.90;;;;;;5074122;28;20623;-78
2023/10/24 03:03:33;;;;;;;;;;;14.30;99.90;;;;;;5092159;28;19930;-78
2023/10/24 03:05:58;;;;;;;;;;;14.20;99.90;;;;;;5073999;28;19904;-76
2023/10/24 03:08:24;;;;;;;;;;;14.30;99.90;;;;;;5073948;28;20295;-77
2023/10/24 03:10:50;;;;;;;;;;;14.30;99.90;;;;;;5091958;28;20439;-78
2023/10/24 03:13:15;;;;;;;;;;;14.30;99.90;;;;;;5092083;28;19908;-77
2023/10/24 03:15:41;;;;;;;;;;;14.30;99.90;;;;;;5073441;28;20288;-76
2023/10/24 03:18:07;;;;;;;;;;;14.40;99.90;;;;;;5091817;28;19973;-76
2023/10/24 03:20:32;;;;;;;;;;;14.40;99.90;;;;;;5073697;28;20284;-76
2023/10/24 03:22:58;;;;;;;;;;;14.40;99.90;;;;;;5091510;28;19915;-78
2023/10/24 03:25:24;;;;;;;;;;;14.30;99.90;;;;;;5091590;28;19943;-78
2023/10/24 03:27:54;;;;;;;;;;;14.30;99.90;;;;;;5091763;28;19915;-78
2023/10/24 03:30:20;;;;;;;;;;;14.10;99.90;;;;;;5073482;28;19915;-77
2023/10/24 03:32:45;;;;;;;;;;;14.00;99.90;;;;;;5073347;28;19931;-78
2023/10/24 03:35:11;;;;;;;;;;;14.00;99.90;;;;;;5091440;28;20372;-76
2023/10/24 03:37:36;;;;;;;;;;;14.00;99.90;;;;;;5091410;28;19911;-77
2023/10/24 03:40:02;;;;;;;;;;;13.90;99.90;;;;;;5073167;28;19919;-77
2023/10/24 03:42:29;;;;;;;;;;;13.80;99.90;;;;;;5073135;28;20368;-77
2023/10/24 03:44:54;;;;;;;;;;;13.80;99.90;;;;;;5091370;28;19908;-77
2023/10/24 03:47:20;;;;;;;;;;;14.00;99.90;;;;;;5091330;28;20376;-76
2023/10/24 03:49:45;;;;;;;;;;;14.00;99.90;;;;;;5091267;28;19912;-77
2023/10/24 03:52:11;;;;;;;;;;;13.90;99.90;;;;;;5072900;28;19953;-77
2023/10/24 03:54:36;;;;;;;;;;;14.00;99.90;;;;;;5072405;28;19908;-76
2023/10/24 03:57:02;;;;;;;;;;;14.00;99.90;;;;;;5072828;28;20315;-78
2023/10/24 03:59:28;;;;;;;;;;;13.90;99.90;;;;;;5072787;28;20292;-77
2023/10/24 04:01:53;;;;;;;;;;;14.00;99.90;;;;;;5072895;28;20432;-77
2023/10/24 04:04:19;;;;;;;;;;;14.00;99.90;;;;;;5072610;28;20361;-77
2023/10/24 04:06:44;;;;;;;;;;;13.90;99.90;;;;;;5072701;28;20419;-77
2023/10/24 04:09:10;;;;;;;;;;;13.80;99.90;;;;;;5072692;28;19908;-76
2023/10/24 04:11:35;;;;;;;;;;;13.80;99.90;;;;;;5072676;28;20379;-76
2023/10/24 04:14:02;;;;;;;;;;;13.90;99.90;;;;;;5072402;28;20020;-77
2023/10/24 04:16:27;;;;;;;;;;;13.70;99.90;;;;;;5072624;28;19915;-77
2023/10/24 04:18:53;;;;;;;;;;;13.80;99.90;;;;;;5072500;28;20303;-78
2023/10/24 04:21:18;;;;;;;;;;;13.80;99.90;;;;;;5090488;28;19947;-77
2023/10/24 04:23:44;;;;;;;;;;;13.80;99.90;;;;;;5072254;28;20373;-78
2023/10/24 04:26:10;;;;;;;;;;;13.70;99.90;;;;;;5072387;28;19915;-78
2023/10/24 04:28:36;;;;;;;;;;;13.70;99.90;;;;;;5072268;28;20376;-77
2023/10/24 04:31:01;;;;;;;;;;;13.70;99.90;;;;;;5090610;28;19912;-79
2023/10/24 04:33:27;;;;;;;;;;;13.60;99.90;;;;;;5072714;28;19908;-78
2023/10/24 04:35:53;;;;;;;;;;;13.50;99.90;;;;;;5090362;28;19915;-78
2023/10/24 04:38:18;;;;;;;;;;;13.60;99.90;;;;;;5072336;28;19947;-77
2023/10/24 04:40:44;;;;;;;;;;;13.50;99.90;;;;;;5090341;28;19912;-78
2023/10/24 04:43:09;;;;;;;;;;;13.70;99.90;;;;;;5072272;28;19908;-77
2023/10/24 04:45:35;;;;;;;;;;;13.70;99.90;;;;;;5072171;28;19912;-77
2023/10/24 04:48:01;;;;;;;;;;;13.70;99.90;;;;;;5090344;28;19934;-77
2023/10/24 04:50:27;;;;;;;;;;;13.70;99.90;;;;;;5090053;28;20273;-77
2023/10/24 04:52:53;;;;;;;;;;;13.70;99.90;;;;;;5072056;28;19919;-77
2023/10/24 04:55:19;;;;;;;;;;;13.70;99.90;;;;;;5072146;28;19907;-77
2023/10/24 04:57:44;;;;;;;;;;;13.70;99.90;;;;;;5090334;28;19908;-77
2023/10/24 05:00:16;;;;;;;;;;;13.50;99.90;;;;;;5089854;28;19931;-76
2023/10/24 05:02:43;;;;;;;;;;;13.60;99.90;;;;;;5072446;28;19947;-76
2023/10/24 05:05:08;;;;;;;;;;;13.70;99.90;;;;;;5089855;28;19908;-76
2023/10/24 05:07:34;;;;;;;;;;;13.50;99.90;;;;;;5093000;28;19908;-77
2023/10/24 05:09:59;;;;;;;;;;;13.30;99.90;;;;;;5094599;28;20368;-76
2023/10/24 05:12:25;;;;;;;;;;;13.30;99.90;;;;;;5075946;28;19911;-77
2023/10/24 05:14:51;;;;;;;;;;;13.40;99.90;;;;;;5075871;28;20304;-77
2023/10/24 05:17:16;;;;;;;;;;;13.30;99.90;;;;;;5094098;28;19908;-77
2023/10/24 05:19:42;;;;;;;;;;;13.30;99.90;;;;;;5075537;28;19912;-76
2023/10/24 05:22:08;;;;;;;;;;;13.30;99.90;;;;;;5094227;28;19927;-76
2023/10/24 05:24:34;;;;;;;;;;;13.20;99.90;;;;;;5094133;28;19935;-77
2023/10/24 05:26:59;;;;;;;;;;;13.30;99.90;;;;;;5094462;28;19954;-77
2023/10/24 05:29:25;;;;;;;;;;;13.20;99.90;;;;;;5076496;28;19965;-76
2023/10/24 05:31:50;;;;;;;;;;;13.20;99.90;;;;;;5094363;28;20526;-76
2023/10/24 05:34:16;;;;;;;;;;;13.20;99.90;;;;;;5075889;28;19915;-76
2023/10/24 05:36:41;;;;;;;;;;;13.20;99.90;;;;;;5075633;28;20268;-77
2023/10/24 05:39:07;;;;;;;;;;;13.20;99.90;;;;;;5075742;28;19929;-75
2023/10/24 05:41:32;;;;;;;;;;;13.20;99.90;;;;;;5075752;28;19911;-76
2023/10/24 05:43:58;;;;;;;;;;;13.20;99.90;;;;;;5075376;28;19908;-76
2023/10/24 05:46:24;;;;;;;;;;;13.20;99.90;;;;;;5075304;28;20277;-77
2023/10/24 05:48:49;;;;;;;;;;;13.10;99.90;;;;;;5075197;28;19904;-76
2023/10/24 05:51:22;;;;;;;;;;;13.10;99.90;;;;;;5093466;28;19908;-76
2023/10/24 05:53:48;;;;;;;;;;;13.20;99.90;;;;;;5075221;28;20372;-77
2023/10/24 05:56:13;;;;;;;;;;;13.30;99.90;;;;;;5075000;28;19915;-76
2023/10/24 05:58:39;;;;;;;;;;;13.30;99.90;;;;;;5093048;28;19908;-76
2023/10/24 06:01:05;;;;;;;;;;;13.40;99.90;;;;;;5093382;28;19915;-76
2023/10/24 06:03:30;;;;;;;;;;;13.40;99.90;;;;;;5093296;28;19908;-77
2023/10/24 06:05:56;;;;;;;;;;;13.50;99.90;;;;;;5093253;28;19961;-77
2023/10/24 06:08:21;;;;;;;;;;;13.60;99.90;;;;;;5074850;28;19908;-77
2023/10/24 06:10:56;;;;;;;;;;;13.60;99.90;;;;;;5074925;28;19912;-77
2023/10/24 06:13:22;;;;;;;;;;;13.70;99.90;;;;;;5092847;28;19904;-77
2023/10/24 06:15:47;;;;;;;;;;;13.70;99.90;;;;;;5093028;28;19923;-78
2023/10/24 06:18:13;;;;;;;;;;;13.60;99.90;;;;;;5092283;28;19907;-78
2023/10/24 06:20:38;;;;;;;;;;;13.70;99.90;;;;;;5092519;28;19912;-79
2023/10/24 06:23:05;;;;;;;;;;;13.90;99.90;;;;;;5092735;28;19910;-77
2023/10/24 06:25:40;;;;;;;;;;;14.10;99.90;;;;;;5092878;28;19911;-77
2023/10/24 06:28:06;;;;;;;;;;;14.10;99.90;;;;;;5074617;28;19977;-76
2023/10/24 06:30:32;;;;;;;;;;;14.20;99.90;;;;;;5092845;28;19977;-76
2023/10/24 06:32:58;;;;;;;;;;;14.20;99.90;;;;;;5074654;28;20000;-76
2023/10/24 06:35:23;;;;;;;;;;;14.30;99.90;;;;;;5074696;28;19990;-79
2023/10/24 06:37:49;;;;;;;;;;;14.30;99.90;;;;;;5092407;28;19999;-78
2023/10/24 06:40:14;;;;;;;;;;;14.30;99.90;;;;;;5092210;28;20003;-77
2023/10/24 06:42:40;;;;;;;;;;;14.30;99.90;;;;;;5092640;28;19904;-78
2023/10/24 06:45:06;;;;;;;;;;;14.30;99.90;;;;;;5074301;28;19908;-77
2023/10/24 06:47:32;;;;;;;;;;;14.30;99.90;;;;;;5074581;28;19904;-79
2023/10/24 06:49:57;;;;;;;;;;;14.40;99.90;;;;;;5092415;28;20049;-78
2023/10/24 06:52:23;;;;;;;;;;;14.40;99.90;;;;;;5074122;28;19998;-78
2023/10/24 06:54:49;;;;;;;;;;;14.40;99.90;;;;;;5074180;28;20387;-78
2023/10/24 06:57:14;;;;;;;;;;;14.50;99.90;;;;;;5092317;28;19994;-77
2023/10/24 06:59:40;;;;;;;;;;;14.60;99.90;;;;;;5073798;28;19951;-78
2023/10/24 07:02:05;;;;;;;;;;;14.70;99.90;;;;;;5091874;28;20435;-78
2023/10/24 07:04:32;;;;;;;;;;;14.90;99.90;;;;;;5092121;28;20287;-77
2023/10/24 07:06:57;;;;;;;;;;;15.00;99.90;;;;;;5092056;28;19904;-78
2023/10/24 07:09:23;;;;;;;;;;;15.20;99.90;;;;;;5092045;28;20273;-78
2023/10/24 07:11:48;;;;;;;;;;;15.40;99.90;;;;;;5073531;28;19995;-78
2023/10/24 07:14:14;;;;;;;;;;;15.50;99.90;;;;;;5073600;28;19904;-76
2023/10/24 07:16:39;;;;;;;;;;;15.70;99.90;;;;;;5091857;28;19911;-77
2023/10/24 07:19:05;;;;;;;;;;;15.80;99.90;;;;;;5073540;28;20352;-78
2023/10/24 07:21:30;;;;;;;;;;;15.80;99.90;;;;;;5073709;28;20564;-78
2023/10/24 07:23:56;;;;;;;;;;;15.80;99.90;;;;;;5091401;28;20368;-76
2023/10/24 07:26:22;;;;;;;;;;;15.90;99.90;;;;;;5091594;28;20361;-78
2023/10/24 07:28:47;;;;;;;;;;;15.70;99.90;;;;;;5090538;28;19973;-77
2023/10/24 07:31:13;;;;;;;;;;;15.80;99.90;;;;;;5091401;28;19915;-77
2023/10/24 07:33:38;;;;;;;;;;;15.90;99.90;;;;;;5073329;28;20284;-77
2023/10/24 07:36:05;;;;;;;;;;;15.90;99.90;;;;;;5073393;28;20332;-78
2023/10/24 07:38:30;;;;;;;;;;;16.00;99.90;;;;;;5073310;28;20292;-76
2023/10/24 07:40:56;;;;;;;;;;;16.10;99.90;;;;;;5091339;28;19912;-77
2023/10/24 07:43:21;;;;;;;;;;;16.10;99.90;;;;;;5073049;28;19908;-77
2023/10/24 07:45:50;;;;;;;;;;;16.20;99.90;;;;;;5073090;28;19915;-77
2023/10/24 07:48:16;;;;;;;;;;;16.20;99.90;;;;;;5072880;28;19912;-77
2023/10/24 07:50:51;;;;;;;;;;;16.10;99.90;;;;;;5091315;28;20383;-77
2023/10/24 07:53:18;;;;;;;;;;;16.00;99.90;;;;;;5091089;28;19968;-78
2023/10/24 07:55:43;;;;;;;;;;;16.00;99.90;;;;;;5091148;28;20304;-78
2023/10/24 07:58:09;;;;;;;;;;;15.90;99.90;;;;;;5072696;28;20365;-77
2023/10/24 08:00:34;;;;;;;;;;;16.00;99.90;;;;;;5091030;28;19912;-77
2023/10/24 08:03:00;;;;;;;;;;;16.20;99.90;;;;;;5090928;28;19904;-77
2023/10/24 08:05:25;;;;;;;;;;;16.30;99.90;;;;;;5090892;28;19942;-78
2023/10/24 08:07:51;;;;;;;;;;;16.50;99.90;;;;;;5072613;28;19908;-77
2023/10/24 08:10:17;;;;;;;;;;;16.60;99.90;;;;;;5090535;28;19904;-78
2023/10/24 08:12:42;;;;;;;;;;;16.70;99.90;;;;;;5090723;28;19915;-77
2023/10/24 08:15:08;;;;;;;;;;;16.70;99.90;;;;;;5090590;28;19963;-77
2023/10/24 08:17:34;;;;;;;;;;;16.70;99.90;;;;;;5072039;28;20280;-77
2023/10/24 08:19:59;;;;;;;;;;;16.50;99.90;;;;;;5090517;28;19916;-77
2023/10/24 08:22:25;;;;;;;;;;;16.70;99.90;;;;;;5090711;28;19912;-78
2023/10/24 08:24:50;;;;;;;;;;;17.00;99.90;;;;;;5090665;28;19915;-78
2023/10/24 08:27:16;;;;;;;;;;;17.20;99.90;;;;;;5072315;28;20016;-78
2023/10/24 08:29:41;;;;;;;;;;;17.30;99.90;;;;;;5090526;28;19908;-77
2023/10/24 08:32:07;;;;;;;;;;;17.40;99.90;;;;;;5090590;28;20684;-76
2023/10/24 08:34:36;;;;;;;;;;;17.50;99.90;;;;;;5090585;28;19910;-77
2023/10/24 08:37:05;;;;;;;;;;;17.60;99.90;;;;;;5072147;28;19924;-78
2023/10/24 08:39:31;;;;;;;;;;;18.10;99.90;;;;;;5085302;28;19912;-76
2023/10/24 08:41:59;;;;;;;;;;;18.40;99.90;;;;;;5090105;28;19914;-77
2023/10/24 08:44:26;;;;;;;;;;;18.60;99.90;;;;;;5090505;28;19904;-77
2023/10/24 08:46:52;;;;;;;;;;;18.70;99.90;;;;;;5072258;28;19947;-77
2023/10/24 08:49:18;;;;;;;;;;;18.80;99.90;;;;;;5071851;28;20366;-78
2023/10/24 08:51:45;;;;;;;;;;;19.20;99.90;;;;;;5072492;28;19908;-77
2023/10/24 08:54:10;;;;;;;;;;;19.50;99.90;;;;;;5090305;28;20326;-76
2023/10/24 08:56:37;;;;;;;;;;;20.00;99.90;;;;;;5072139;28;20356;-77
2023/10/24 08:59:03;;;;;;;;;;;20.40;99.10;;;;;;5072262;28;19919;-78
2023/10/24 09:01:29;;;;;;;;;;;20.90;97.30;;;;;;5090219;28;19961;-76
2023/10/24 09:03:55;;;;;;;;;;;21.30;95.60;;;;;;5071819;28;19912;-77
2023/10/24 09:06:22;;;;;;;;;;;21.70;93.50;;;;;;5089828;28;19908;-77
2023/10/24 09:08:48;;;;;;;;;;;22.00;92.00;;;;;;5071876;28;19904;-77
2023/10/24 09:11:14;;;;;;;;;;;22.30;90.70;;;;;;5089973;28;19908;-76
2023/10/24 09:13:40;;;;;;;;;;;22.30;90.40;;;;;;5090301;28;19908;-77
2023/10/24 09:16:07;;;;;;;;;;;22.00;91.10;;;;;;5089863;28;19949;-77
2023/10/24 09:18:33;;;;;;;;;;;21.70;91.20;;;;;;5089996;28;19904;-77
2023/10/24 09:20:59;;;;;;;;;;;21.40;91.50;;;;;;5089983;28;20662;-77
2023/10/24 09:23:24;;;;;;;;;;;21.10;92.10;;;;;;5071780;28;19908;-77
2023/10/24 09:25:50;;;;;;;;;;;20.70;91.70;;;;;;5089706;28;19919;-77
2023/10/24 09:28:16;;;;;;;;;;;20.50;92.90;;;;;;5089792;28;19915;-77
2023/10/24 09:30:42;;;;;;;;;;;20.40;91.70;;;;;;5089967;28;20288;-77
2023/10/24 09:33:08;;;;;;;;;;;20.00;93.60;;;;;;5089917;28;20372;-77
2023/10/24 09:35:35;;;;;;;;;;;20.00;94.70;;;;;;5071662;28;19908;-77
2023/10/24 09:38:01;;;;;;;;;;;19.90;95.30;;;;;;5089863;28;19908;-76
2023/10/24 09:40:37;;;;;;;;;;;20.00;95.70;;;;;;5071885;28;20031;-77
2023/10/24 09:43:16;;;;;;;;;;;20.00;96.00;;;;;;5089840;28;19904;-77
2023/10/24 09:45:43;;;;;;;;;;;19.90;95.30;;;;;;5071673;28;19926;-77
2023/10/24 09:48:10;;;;;;;;;;;19.80;95.70;;;;;;5089613;28;20395;-77
2023/10/24 09:50:37;;;;;;;;;;;19.80;96.30;;;;;;5089599;28;19908;-77
2023/10/24 09:53:03;;;;;;;;;;;19.70;96.90;;;;;;5074085;28;19994;-76
2023/10/24 09:55:28;;;;;;;;;;;19.50;97.60;;;;;;5093469;28;20098;-77
2023/10/24 09:57:55;;;;;;;;;;;19.50;97.60;;;;;;5075247;28;19904;-77
2023/10/24 10:00:21;;;;;;;;;;;19.20;97.80;;;;;;5093219;28;20007;-77
2023/10/24 10:02:47;;;;;;;;;;;19.10;99.00;;;;;;5075085;28;19995;-77
2023/10/24 10:05:14;;;;;;;;;;;18.90;99.60;;;;;;5093203;28;19915;-76
2023/10/24 10:07:40;;;;;;;;;;;18.80;99.90;;;;;;5074997;28;20045;-77
2023/10/24 10:10:07;;;;;;;;;;;18.70;99.90;;;;;;5074779;28;20284;-77
2023/10/24 10:12:33;;;;;;;;;;;18.60;99.90;;;;;;5074713;28;19990;-77
2023/10/24 10:15:05;;;;;;;;;;;18.50;99.90;;;;;;5074734;28;19994;-77
2023/10/24 10:17:48;;;;;;;;;;;18.50;99.90;;;;;;5074681;28;19915;-77
2023/10/24 10:20:26;;;;;;;;;;;18.40;99.90;;;;;;5092862;28;19919;-77
2023/10/24 10:22:57;;;;;;;;;;;18.30;99.90;;;;;;5074704;28;19905;-77
2023/10/24 10:25:41;;;;;;;;;;;18.40;99.90;;;;;;5092945;28;19908;-77
2023/10/24 10:28:25;;;;;;;;;;;18.40;99.90;;;;;;5092684;28;19955;-77
2023/10/24 10:30:54;;;;;;;;;;;18.30;99.90;;;;;;5092687;28;19908;-78
2023/10/24 10:33:21;;;;;;;;;;;18.30;99.90;;;;;;5092759;28;20391;-76
2023/10/24 10:35:54;;;;;;;;;;;18.30;99.90;;;;;;5074351;28;20386;-77
2023/10/24 10:38:44;;;;;;;;;;;18.40;99.90;;;;;;5074301;28;19908;-78
2023/10/24 10:41:22;;;;;;;;;;;18.50;99.90;;;;;;5081908;28;19916;-77
2023/10/24 10:43:48;;;;;;;;;;;18.50;99.90;;;;;;5092520;28;19904;-76
2023/10/24 10:46:18;;;;;;;;;;;18.50;99.90;;;;;;5074042;28;19915;-77
2023/10/24 10:48:44;;;;;;;;;;;18.50;99.90;;;;;;5074400;28;19912;-77
2023/10/24 10:51:13;;;;;;;;;;;18.50;99.90;;;;;;5074096;28;19908;-77
2023/10/24 10:53:52;;;;;;;;;;;18.50;99.90;;;;;;5092141;28;19911;-77
2023/10/24 10:56:19;;;;;;;;;;;18.50;99.90;;;;;;5074041;28;19908;-76
2023/10/24 10:59:03;;;;;;;;;;;18.50;99.90;;;;;;5091970;28;20369;-77
2023/10/24 11:01:33;;;;;;;;;;;18.50;99.90;;;;;;5092077;28;19908;-77
2023/10/24 11:03:59;;;;;;;;;;;18.70;99.90;;;;;;5073851;28;20288;-77
2023/10/24 11:06:26;;;;;;;;;;;18.60;99.90;;;;;;5091973;28;19915;-76
2023/10/24 11:09:10;;;;;;;;;;;18.60;99.90;;;;;;5092642;28;20005;-77
2023/10/24 11:11:39;;;;;;;;;;;18.70;99.90;;;;;;5091945;28;19964;-77
2023/10/24 11:14:15;;;;;;;;;;;18.70;99.90;;;;;;5073577;28;20468;-77
2023/10/24 11:16:41;;;;;;;;;;;18.70;99.90;;;;;;5091734;28;19904;-75
2023/10/24 11:19:07;;;;;;;;;;;18.60;99.90;;;;;;5073567;28;19912;-77
2023/10/24 11:21:33;;;;;;;;;;;18.60;99.90;;;;;;5073576;28;19940;-77
2023/10/24 11:23:59;;;;;;;;;;;18.60;99.90;;;;;;5091603;28;20563;-77
2023/10/24 11:26:25;;;;;;;;;;;18.60;99.90;;;;;;5091515;28;19961;-77
2023/10/24 11:28:51;;;;;;;;;;;18.50;99.90;;;;;;5091608;28;19936;-77
2023/10/24 11:31:21;;;;;;;;;;;18.40;99.90;;;;;;5091506;28;19950;-77
2023/10/24 11:33:47;;;;;;;;;;;18.40;99.90;;;;;;5073282;28;20253;-77
2023/10/24 11:36:13;;;;;;;;;;;18.40;99.90;;;;;;5073126;28;20360;-77
2023/10/24 11:38:38;;;;;;;;;;;18.40;99.90;;;;;;5073221;28;19955;-77
2023/10/24 11:41:04;;;;;;;;;;;18.40;99.90;;;;;;5073020;28;19916;-77
2023/10/24 11:43:29;;;;;;;;;;;18.30;99.90;;;;;;5073306;28;20390;-77
2023/10/24 11:45:55;;;;;;;;;;;18.30;99.90;;;;;;5091097;28;20343;-77
2023/10/24 11:48:21;;;;;;;;;;;18.30;99.90;;;;;;5072980;28;19995;-77
2023/10/24 11:50:46;;;;;;;;;;;18.40;99.90;;;;;;5091144;28;19954;-77
2023/10/24 11:53:19;;;;;;;;;;;18.40;99.90;;;;;;5072861;28;19915;-77
2023/10/24 11:55:44;;;;;;;;;;;18.40;99.90;;;;;;5091016;28;19927;-77
2023/10/24 11:58:11;;;;;;;;;;;18.50;99.90;;;;;;5090658;28;20368;-77
2023/10/24 12:00:40;;;;;;;;;;;18.50;99.90;;;;;;5091087;28;20281;-76
2023/10/24 12:03:05;;;;;;;;;;;18.30;99.90;;;;;;5090947;28;19908;-77
2023/10/24 12:05:32;;;;;;;;;;;18.30;99.90;;;;;;5072696;28;19915;-77
2023/10/24 12:08:01;;;;;;;;;;;18.40;99.90;;;;;;5090738;28;20015;-77
2023/10/24 12:10:28;;;;;;;;;;;18.40;99.90;;;;;;5090648;28;19904;-77
2023/10/24 12:12:55;;;;;;;;;;;18.40;99.90;;;;;;5072600;28;19930;-77
2023/10/24 12:15:22;;;;;;;;;;;18.40;99.90;;;;;;5072160;28;19924;-76
2023/10/24 12:17:48;;;;;;;;;;;18.50;99.90;;;;;;5072454;28;20304;-77
2023/10/24 12:20:13;;;;;;;;;;;18.50;99.90;;;;;;5090576;28;20388;-76
2023/10/24 12:22:39;;;;;;;;;;;18.50;99.90;;;;;;5072784;28;20279;-77
2023/10/24 12:25:05;;;;;;;;;;;18.60;99.90;;;;;;5072209;28;19911;-77
2023/10/24 12:27:33;;;;;;;;;;;18.60;99.90;;;;;;5071775;28;19911;-77
2023/10/24 12:29:58;;;;;;;;;;;18.60;99.90;;;;;;5090519;28;19961;-77
2023/10/24 12:32:24;;;;;;;;;;;18.50;99.90;;;;;;5072373;28;19908;-77
2023/10/24 12:34:49;;;;;;;;;;;18.50;99.90;;;;;;5072048;28;19911;-77
2023/10/24 12:37:15;;;;;;;;;;;18.40;99.90;;;;;;5072190;28;19912;-77
2023/10/24 12:39:40;;;;;;;;;;;18.50;99.90;;;;;;5090379;28;19999;-77
2023/10/24 12:42:06;;;;;;;;;;;18.50;99.90;;;;;;5072307;28;20360;-76
2023/10/24 12:44:31;;;;;;;;;;;18.50;99.90;;;;;;5071899;28;19915;-77
2023/10/24 12:46:57;;;;;;;;;;;18.50;99.90;;;;;;5090007;28;19930;-77
2023/10/24 12:49:22;;;;;;;;;;;18.60;99.90;;;;;;5090372;28;20385;-76
2023/10/24 12:51:48;;;;;;;;;;;18.70;99.90;;;;;;5090176;28;20366;-77
2023/10/24 12:54:13;;;;;;;;;;;18.70;99.90;;;;;;5090189;28;19904;-77
2023/10/24 12:56:39;;;;;;;;;;;18.70;99.90;;;;;;5072185;28;20376;-78
2023/10/24 12:59:04;;;;;;;;;;;18.60;99.90;;;;;;5071956;28;19919;-77
2023/10/24 13:01:30;;;;;;;;;;;18.50;99.90;;;;;;5071659;28;20284;-76
2023/10/24 13:03:56;;;;;;;;;;;18.50;99.90;;;;;;5090209;28;20292;-77
2023/10/24 13:06:22;;;;;;;;;;;18.40;99.90;;;;;;5071858;28;20053;-77
2023/10/24 13:08:47;;;;;;;;;;;18.40;99.90;;;;;;5090118;28;19915;-77
2023/10/24 13:11:13;;;;;;;;;;;18.30;99.90;;;;;;5089898;28;19904;-77
2023/10/24 13:13:39;;;;;;;;;;;18.20;99.90;;;;;;5071959;28;20486;-78
2023/10/24 13:16:04;;;;;;;;;;;18.20;99.90;;;;;;5071706;28;19922;-77
2023/10/24 13:18:30;;;;;;;;;;;18.10;99.90;;;;;;5089857;28;20002;-76
2023/10/24 13:20:55;;;;;;;;;;;18.00;99.90;;;;;;5071467;28;19959;-77
2023/10/24 13:23:21;;;;;;;;;;;18.00;99.90;;;;;;5089695;28;20299;-78
2023/10/24 13:25:46;;;;;;;;;;;18.00;99.90;;;;;;5071863;28;19912;-77
2023/10/24 13:28:12;;;;;;;;;;;17.90;99.90;;;;;;5091974;28;19912;-77
2023/10/24 13:30:37;;;;;;;;;;;17.90;99.90;;;;;;5093867;28;19908;-77
2023/10/24 13:33:03;;;;;;;;;;;17.90;99.90;;;;;;5093615;28;19912;-77
2023/10/24 13:35:28;;;;;;;;;;;17.90;99.90;;;;;;5075512;28;20716;-78
2023/10/24 13:37:54;;;;;;;;;;;17.80;99.90;;;;;;5093847;28;19911;-77
2023/10/24 13:40:20;;;;;;;;;;;17.80;99.90;;;;;;5075029;28;19912;-79
2023/10/24 13:42:45;;;;;;;;;;;17.80;99.90;;;;;;5093585;28;20368;-76
2023/10/24 13:45:12;;;;;;;;;;;17.80;99.90;;;;;;5075313;28;19908;-77
2023/10/24 13:47:38;;;;;;;;;;;17.80;99.90;;;;;;5075187;28;19923;-77
2023/10/24 13:50:03;;;;;;;;;;;17.80;99.90;;;;;;5093353;28;19907;-78
2023/10/24 13:52:32;;;;;;;;;;;17.80;99.90;;;;;;5093392;28;19935;-76
2023/10/24 13:54:58;;;;;;;;;;;17.80;99.90;;;;;;5093451;28;19943;-77
2023/10/24 13:57:24;;;;;;;;;;;17.80;99.90;;;;;;5075023;28;19947;-77
2023/10/24 13:59:49;;;;;;;;;;;17.70;99.90;;;;;;5074998;28;19912;-77
2023/10/24 14:02:15;;;;;;;;;;;17.70;99.90;;;;;;5093172;28;20380;-77
2023/10/24 14:04:40;;;;;;;;;;;17.70;99.90;;;;;;5093160;28;19904;-77
2023/10/24 14:07:06;;;;;;;;;;;17.60;99.90;;;;;;5093134;28;19946;-77
2023/10/24 14:09:32;;;;;;;;;;;17.60;99.90;;;;;;5092995;28;20363;-78
2023/10/24 14:11:57;;;;;;;;;;;17.50;99.90;;;;;;5074877;28;20241;-76